Time;durP1;ratioP1;P1;durP2;ratioP2;P2;SDS_P1;SDS_P2;PMS_P1;PMS_P2;Temp;Humidity;BMP_temperature;BMP_pressure;BME280_temperature;BME280_humidity;BME280_pressure;Samples;Min_cycle;Max_cycle;Signal;HPM_P1;HPM_P2
2023/03/05 00:01:35;;;;;;;;;;;;;;;;;;10469589;28;19919;-76
2023/03/05 00:06:56;;;;;;;;;;;;;;;;;;10460266;28;19916;-77
2023/03/05 00:12:17;;;;;;;;;;;;;;;;;;10463913;28;19917;-75
2023/03/05 00:17:38;;;;;;;;;;;;;;;;;;10451326;28;19975;-75
2023/03/05 00:22:59;;;;;;;;;;;;;;;;;;10456463;28;19917;-75
2023/03/05 00:28:19;;;;;;;;;;;;;;;;;;10456590;28;19917;-75
2023/03/05 00:33:40;;;;;;;;;;;;;;;;;;10456733;28;19935;-75
2023/03/05 00:39:01;;;;;;;;;;;;;;;;;;10454547;28;20273;-75
2023/03/05 00:44:21;;;;;;;;;;;;;;;;;;10460999;28;19916;-75
2023/03/05 00:49:42;;;;;;;;;;;;;;;;;;10454345;28;19924;-76
2023/03/05 00:55:03;;;;;;;;;;;;;;;;;;10464370;28;19920;-75
2023/03/05 01:00:23;;;;;;;;;;;;;;;;;;10468460;28;19912;-76
2023/03/05 01:05:44;;;;;;;;;;;;;;;;;;10471400;28;19920;-76
2023/03/05 01:11:05;;;;;;;;;;;;;;;;;;10453541;28;20273;-76
2023/03/05 01:16:26;;;;;;;;;;;;;;;;;;10450350;28;19917;-76
2023/03/05 01:21:46;;;;;;;;;;;;;;;;;;10434505;28;19915;-75
2023/03/05 01:27:07;;;;;;;;;;;;;;;;;;10464460;28;19913;-76
2023/03/05 01:32:28;;;;;;;;;;;;;;;;;;10454170;28;20335;-76
2023/03/05 01:37:48;;;;;;;;;;;;;;;;;;10460553;28;19912;-76
2023/03/05 01:43:09;;;;;;;;;;;;;;;;;;10427241;28;19912;-76
2023/03/05 01:48:30;;;;;;;;;;;;;;;;;;10470248;28;19920;-76
2023/03/05 01:53:50;;;;;;;;;;;;;;;;;;10474143;28;19917;-76
2023/03/05 01:59:11;;;;;;;;;;;;;;;;;;10465645;28;20287;-76
2023/03/05 02:04:32;;;;;;;;;;;;;;;;;;10474573;28;19924;-75
2023/03/05 02:09:53;;;;;;;;;;;;;;;;;;10464629;28;19917;-75
2023/03/05 02:15:13;;;;;;;;;;;;;;;;;;10454295;28;19916;-76
2023/03/05 02:20:34;;;;;;;;;;;;;;;;;;10432445;28;19932;-76
2023/03/05 02:25:55;;;;;;;;;;;;;;;;;;10456329;28;19919;-76
2023/03/05 02:31:15;;;;;;;;;;;;;;;;;;10459499;28;19978;-76
2023/03/05 02:36:36;;;;;;;;;;;;;;;;;;10460471;28;20009;-76
2023/03/05 02:41:57;;;;;;;;;;;;;;;;;;10477188;28;19990;-76
2023/03/05 02:47:17;;;;;;;;;;;;;;;;;;10455748;28;19919;-76
2023/03/05 02:52:39;;;;;;;;;;;;;;;;;;10480004;28;19928;-75
2023/03/05 02:57:59;;;;;;;;;;;;;;;;;;10469799;28;20283;-76
2023/03/05 03:03:20;;;;;;;;;;;;;;;;;;10473629;28;19917;-76
2023/03/05 03:08:41;;;;;;;;;;;;;;;;;;10475414;28;19912;-76
2023/03/05 03:14:01;;;;;;;;;;;;;;;;;;10474690;28;20398;-76
2023/03/05 03:19:22;;;;;;;;;;;;;;;;;;10445144;28;19913;-76
2023/03/05 03:24:43;;;;;;;;;;;;;;;;;;10415498;28;20331;-76
2023/03/05 03:30:03;;;;;;;;;;;;;;;;;;10435813;28;20533;-76
2023/03/05 03:35:24;;;;;;;;;;;;;;;;;;10442857;28;20430;-75
2023/03/05 03:40:45;;;;;;;;;;;;;;;;;;10465517;28;19924;-75
2023/03/05 03:46:05;;;;;;;;;;;;;;;;;;10467543;28;19916;-75
2023/03/05 03:51:26;;;;;;;;;;;;;;;;;;10470494;28;20310;-73
2023/03/05 03:56:47;;;;;;;;;;;;;;;;;;10478442;28;19913;-73
2023/03/05 04:02:08;;;;;;;;;;;;;;;;;;10466816;28;19917;-73
2023/03/05 04:07:28;;;;;;;;;;;;;;;;;;10467644;28;19924;-73
2023/03/05 04:12:49;;;;;;;;;;;;;;;;;;10468350;28;19920;-73
2023/03/05 04:18:10;;;;;;;;;;;;;;;;;;10463228;28;19912;-73
2023/03/05 04:23:30;;;;;;;;;;;;;;;;;;10463124;28;19919;-73
2023/03/05 04:28:51;;;;;;;;;;;;;;;;;;10473113;28;20299;-73
2023/03/05 04:34:12;;;;;;;;;;;;;;;;;;10462045;28;20275;-72
2023/03/05 04:39:32;;;;;;;;;;;;;;;;;;10469416;28;20023;-73
2023/03/05 04:44:53;;;;;;;;;;;;;;;;;;10459297;28;19943;-72
2023/03/05 04:50:14;;;;;;;;;;;;;;;;;;10475354;28;19947;-73
2023/03/05 04:55:34;;;;;;;;;;;;;;;;;;10470478;28;20367;-73
2023/03/05 05:00:55;;;;;;;;;;;;;;;;;;10462692;28;19923;-74
2023/03/05 05:06:16;;;;;;;;;;;;;;;;;;10466958;28;19912;-74
2023/03/05 05:11:37;;;;;;;;;;;;;;;;;;10463236;28;19917;-74
2023/03/05 05:16:58;;;;;;;;;;;;;;;;;;10473253;28;20402;-74
2023/03/05 05:22:19;;;;;;;;;;;;;;;;;;10462032;28;19917;-74
2023/03/05 05:27:39;;;;;;;;;;;;;;;;;;10455385;28;19912;-74
2023/03/05 05:33:00;;;;;;;;;;;;;;;;;;10469086;28;20332;-74
2023/03/05 05:38:21;;;;;;;;;;;;;;;;;;10447861;28;19913;-74
2023/03/05 05:43:41;;;;;;;;;;;;;;;;;;10455026;28;19916;-74
2023/03/05 05:49:02;;;;;;;;;;;;;;;;;;10467163;28;20244;-74
2023/03/05 05:54:23;;;;;;;;;;;;;;;;;;10464816;28;19920;-74
2023/03/05 05:59:43;;;;;;;;;;;;;;;;;;10463907;28;19959;-74
2023/03/05 06:05:04;;;;;;;;;;;;;;;;;;10468867;28;19927;-74
2023/03/05 06:10:25;;;;;;;;;;;;;;;;;;10465768;28;20171;-74
2023/03/05 06:15:46;;;;;;;;;;;;;;;;;;10469229;28;19931;-74
2023/03/05 06:21:06;;;;;;;;;;;;;;;;;;10468526;28;19913;-74
2023/03/05 06:26:27;;;;;;;;;;;;;;;;;;10472082;28;20667;-73
2023/03/05 06:31:48;;;;;;;;;;;;;;;;;;10450795;28;20409;-74
2023/03/05 06:37:08;;;;;;;;;;;;;;;;;;10468240;28;19924;-73
2023/03/05 06:42:29;;;;;;;;;;;;;;;;;;10472013;28;19931;-74
2023/03/05 06:47:50;;;;;;;;;;;;;;;;;;10456748;28;20383;-74
2023/03/05 06:53:10;;;;;;;;;;;;;;;;;;10458226;28;19921;-74
2023/03/05 06:58:31;;;;;;;;;;;;;;;;;;10473358;28;20291;-74
2023/03/05 07:03:52;;;;;;;;;;;;;;;;;;10450166;28;19916;-74
2023/03/05 07:09:13;;;;;;;;;;;;;;;;;;10452777;28;19924;-74
2023/03/05 07:14:34;;;;;;;;;;;;;;;;;;10475413;28;19916;-74
2023/03/05 07:19:55;;;;;;;;;;;;;;;;;;10445072;28;19912;-73
2023/03/05 07:25:20;;;;;;;;;;;;;;;;;;10457448;28;19921;-74
2023/03/05 07:30:41;;;;;;;;;;;;;;;;;;10414072;28;19909;-72
2023/03/05 07:36:03;;;;;;;;;;;;;;;;;;10475294;28;20390;-73
2023/03/05 07:41:23;;;;;;;;;;;;;;;;;;10461258;28;19917;-73
2023/03/05 07:46:44;;;;;;;;;;;;;;;;;;10466104;28;19921;-73
2023/03/05 07:52:05;;;;;;;;;;;;;;;;;;10460687;28;19932;-73
2023/03/05 07:57:26;;;;;;;;;;;;;;;;;;10424863;28;19944;-73
2023/03/05 08:02:46;;;;;;;;;;;;;;;;;;10456714;28;20318;-73
2023/03/05 08:08:07;;;;;;;;;;;;;;;;;;10461674;28;20368;-73
2023/03/05 08:13:28;;;;;;;;;;;;;;;;;;10466024;28;19927;-73
2023/03/05 08:18:48;;;;;;;;;;;;;;;;;;10465485;28;19913;-73
2023/03/05 08:24:09;;;;;;;;;;;;;;;;;;10464825;28;19916;-72
2023/03/05 08:29:30;;;;;;;;;;;;;;;;;;10456014;28;19950;-73
2023/03/05 08:34:55;;;;;;;;;;;;;;;;;;10455544;28;19944;-73
2023/03/05 08:40:16;;;;;;;;;;;;;;;;;;10453991;28;19917;-73
2023/03/05 08:45:37;;;;;;;;;;;;;;;;;;10458822;28;19913;-73
2023/03/05 08:50:58;;;;;;;;;;;;;;;;;;10455447;28;19932;-73
2023/03/05 08:56:18;;;;;;;;;;;;;;;;;;10454805;28;19928;-73
2023/03/05 09:01:39;;;;;;;;;;;;;;;;;;10447019;28;19913;-73
2023/03/05 09:07:00;;;;;;;;;;;;;;;;;;10450702;28;19913;-73
2023/03/05 09:12:21;;;;;;;;;;;;;;;;;;10451582;28;19927;-73
2023/03/05 09:17:41;;;;;;;;;;;;;;;;;;10449603;28;19916;-74
2023/03/05 09:23:02;;;;;;;;;;;;;;;;;;10450435;28;19917;-73
2023/03/05 09:28:23;;;;;;;;;;;;;;;;;;10451664;28;19913;-74
2023/03/05 09:33:43;;;;;;;;;;;;;;;;;;10450123;28;20365;-74
2023/03/05 09:39:05;;;;;;;;;;;;;;;;;;10448628;28;19920;-73
2023/03/05 09:44:26;;;;;;;;;;;;;;;;;;10456991;28;19921;-73
2023/03/05 09:49:47;;;;;;;;;;;;;;;;;;10447860;28;19931;-73
2023/03/05 09:55:08;;;;;;;;;;;;;;;;;;10452341;28;19917;-73
2023/03/05 10:00:30;;;;;;;;;;;;;;;;;;10452102;28;21789;-73
2023/03/05 10:05:51;;;;;;;;;;;;;;;;;;10469516;28;19913;-72
2023/03/05 10:11:11;;;;;;;;;;;;;;;;;;10457572;28;19962;-72
2023/03/05 10:16:32;;;;;;;;;;;;;;;;;;10442402;28;19927;-73
2023/03/05 10:21:53;;;;;;;;;;;;;;;;;;10467977;28;19916;-73
2023/03/05 10:27:13;;;;;;;;;;;;;;;;;;10450320;28;19952;-73
2023/03/05 10:32:34;;;;;;;;;;;;;;;;;;10443182;28;19917;-73
2023/03/05 10:37:55;;;;;;;;;;;;;;;;;;10446616;28;20285;-73
2023/03/05 10:43:16;;;;;;;;;;;;;;;;;;10447517;28;19917;-72
2023/03/05 10:48:36;;;;;;;;;;;;;;;;;;10437193;28;19923;-72
2023/03/05 10:53:57;;;;;;;;;;;;;;;;;;10450470;28;19925;-72
2023/03/05 10:59:18;;;;;;;;;;;;;;;;;;10448539;28;19913;-72
2023/03/05 11:04:38;;;;;;;;;;;;;;;;;;10465117;28;19917;-72
2023/03/05 11:10:00;;;;;;;;;;;;;;;;;;10451415;28;19913;-73
2023/03/05 11:15:21;;;;;;;;;;;;;;;;;;10454854;28;19917;-73
2023/03/05 11:20:42;;;;;;;;;;;;;;;;;;10456282;28;19909;-73
2023/03/05 11:26:02;;;;;;;;;;;;;;;;;;10454279;28;19917;-74
2023/03/05 11:31:23;;;;;;;;;;;;;;;;;;10449085;28;19920;-73
2023/03/05 11:36:44;;;;;;;;;;;;;;;;;;10453509;28;19917;-73
2023/03/05 11:42:05;;;;;;;;;;;;;;;;;;10452491;28;19932;-74
2023/03/05 11:47:25;;;;;;;;;;;;;;;;;;10460958;28;20465;-70
2023/03/05 11:52:46;;;;;;;;;;;;;;;;;;10483319;28;19928;-74
2023/03/05 11:58:07;;;;;;;;;;;;;;;;;;10426774;28;19916;-71
2023/03/05 12:03:28;;;;;;;;;;;;;;;;;;10446961;28;19956;-73
2023/03/05 12:08:49;;;;;;;;;;;;;;;;;;10472086;28;19919;-73
2023/03/05 12:14:09;;;;;;;;;;;;;;;;;;10469424;28;19928;-73
2023/03/05 12:19:31;;;;;;;;;;;;;;;;;;10453677;28;19908;-73
2023/03/05 12:24:52;;;;;;;;;;;;;;;;;;10450293;28;19943;-73
2023/03/05 12:30:13;;;;;;;;;;;;;;;;;;10452765;28;20360;-73
2023/03/05 12:35:36;;;;;;;;;;;;;;;;;;10451018;28;19924;-72
2023/03/05 12:40:57;;;;;;;;;;;;;;;;;;10466549;28;19917;-72
2023/03/05 12:46:18;;;;;;;;;;;;;;;;;;10455213;28;19923;-72
2023/03/05 12:51:38;;;;;;;;;;;;;;;;;;10452933;28;19925;-72
2023/03/05 12:56:59;;;;;;;;;;;;;;;;;;10451021;28;19928;-73
2023/03/05 13:02:20;;;;;;;;;;;;;;;;;;10424540;28;19909;-72
2023/03/05 13:07:40;;;;;;;;;;;;;;;;;;10424498;28;19913;-73
2023/03/05 13:13:01;;;;;;;;;;;;;;;;;;10446627;28;19925;-73
2023/03/05 13:18:22;;;;;;;;;;;;;;;;;;10438041;28;19920;-73
2023/03/05 13:23:42;;;;;;;;;;;;;;;;;;10447138;28;19962;-73
2023/03/05 13:29:03;;;;;;;;;;;;;;;;;;10448602;28;20363;-73
2023/03/05 13:34:24;;;;;;;;;;;;;;;;;;10452226;28;19917;-74
2023/03/05 13:39:45;;;;;;;;;;;;;;;;;;10473212;28;19913;-74
2023/03/05 13:45:05;;;;;;;;;;;;;;;;;;10442682;28;20343;-73
2023/03/05 13:50:26;;;;;;;;;;;;;;;;;;10443050;28;19927;-74
2023/03/05 13:55:47;;;;;;;;;;;;;;;;;;10454946;28;19924;-74
2023/03/05 14:01:07;;;;;;;;;;;;;;;;;;10425097;28;19912;-74
2023/03/05 14:06:29;;;;;;;;;;;;;;;;;;10432712;28;19916;-74
2023/03/05 14:11:50;;;;;;;;;;;;;;;;;;10444839;28;19913;-74
2023/03/05 14:17:10;;;;;;;;;;;;;;;;;;10445729;28;20379;-74
2023/03/05 14:22:31;;;;;;;;;;;;;;;;;;10469661;28;19920;-74
2023/03/05 14:27:52;;;;;;;;;;;;;;;;;;10457176;28;19913;-74
2023/03/05 14:33:13;;;;;;;;;;;;;;;;;;10444521;28;19917;-74
2023/03/05 14:38:33;;;;;;;;;;;;;;;;;;10471686;28;19917;-74
2023/03/05 14:43:55;;;;;;;;;;;;;;;;;;10457159;28;19913;-74
2023/03/05 14:49:15;;;;;;;;;;;;;;;;;;10480051;28;19928;-74
2023/03/05 14:54:37;;;;;;;;;;;;;;;;;;10446551;28;19927;-74
2023/03/05 14:59:57;;;;;;;;;;;;;;;;;;10437798;28;19913;-74
2023/03/05 15:05:18;;;;;;;;;;;;;;;;;;10438263;28;19919;-74
2023/03/05 15:10:39;;;;;;;;;;;;;;;;;;10488527;28;19948;-76
2023/03/05 15:15:59;;;;;;;;;;;;;;;;;;10453162;28;20263;-74
2023/03/05 15:21:20;;;;;;;;;;;;;;;;;;10454442;28;19917;-74
2023/03/05 15:26:41;;;;;;;;;;;;;;;;;;10460194;28;19967;-74
2023/03/05 15:32:02;;;;;;;;;;;;;;;;;;10458225;28;20261;-74
2023/03/05 15:37:24;;;;;;;;;;;;;;;;;;10455573;28;19921;-74
2023/03/05 15:42:45;;;;;;;;;;;;;;;;;;10457297;28;19913;-74
2023/03/05 15:48:05;;;;;;;;;;;;;;;;;;10485210;28;19908;-74
2023/03/05 15:53:26;;;;;;;;;;;;;;;;;;10454267;28;20362;-74
2023/03/05 15:58:47;;;;;;;;;;;;;;;;;;10455672;28;19924;-74
2023/03/05 16:04:08;;;;;;;;;;;;;;;;;;10445820;28;19916;-74
2023/03/05 16:09:28;;;;;;;;;;;;;;;;;;10455618;28;20402;-74
2023/03/05 16:14:49;;;;;;;;;;;;;;;;;;10454599;28;19916;-74
2023/03/05 16:20:10;;;;;;;;;;;;;;;;;;10454720;28;19913;-74
2023/03/05 16:25:30;;;;;;;;;;;;;;;;;;10453875;28;19917;-74
2023/03/05 16:30:51;;;;;;;;;;;;;;;;;;10454159;28;19908;-73
2023/03/05 16:36:12;;;;;;;;;;;;;;;;;;10472030;28;19923;-74
2023/03/05 16:41:32;;;;;;;;;;;;;;;;;;10452809;28;19916;-74
2023/03/05 16:46:55;;;;;;;;;;;;;;;;;;10472057;28;20271;-74
2023/03/05 16:52:17;;;;;;;;;;;;;;;;;;10455609;28;20387;-74
2023/03/05 16:57:37;;;;;;;;;;;;;;;;;;10441206;28;19925;-74
2023/03/05 17:02:58;;;;;;;;;;;;;;;;;;10421905;28;19913;-74
2023/03/05 17:08:19;;;;;;;;;;;;;;;;;;10451576;28;19917;-73
2023/03/05 17:13:39;;;;;;;;;;;;;;;;;;10451147;28;19916;-74
2023/03/05 17:19:00;;;;;;;;;;;;;;;;;;10451169;28;19919;-74
2023/03/05 17:24:21;;;;;;;;;;;;;;;;;;10453055;28;19913;-74
2023/03/05 17:29:41;;;;;;;;;;;;;;;;;;10451635;28;19913;-73
2023/03/05 17:35:02;;;;;;;;;;;;;;;;;;10480292;28;20363;-74
2023/03/05 17:40:23;;;;;;;;;;;;;;;;;;10450608;28;19916;-74
2023/03/05 17:45:43;;;;;;;;;;;;;;;;;;10449563;28;19920;-74
2023/03/05 17:51:04;;;;;;;;;;;;;;;;;;10450715;28;19929;-73
2023/03/05 17:56:25;;;;;;;;;;;;;;;;;;10423913;28;19917;-74
2023/03/05 18:01:46;;;;;;;;;;;;;;;;;;10410588;28;19955;-74
2023/03/05 18:07:07;;;;;;;;;;;;;;;;;;10456981;28;19920;-74
2023/03/05 18:12:27;;;;;;;;;;;;;;;;;;10451566;28;19913;-74
2023/03/05 18:17:48;;;;;;;;;;;;;;;;;;10422126;28;19917;-74
2023/03/05 18:23:09;;;;;;;;;;;;;;;;;;10449772;28;19920;-74
2023/03/05 18:28:29;;;;;;;;;;;;;;;;;;10451916;28;19961;-74
2023/03/05 18:33:50;;;;;;;;;;;;;;;;;;10461374;28;19920;-74
2023/03/05 18:39:11;;;;;;;;;;;;;;;;;;10443179;28;19913;-74
2023/03/05 18:44:31;;;;;;;;;;;;;;;;;;10450470;28;20279;-73
2023/03/05 18:49:53;;;;;;;;;;;;;;;;;;10425520;28;20305;-74
2023/03/05 18:55:13;;;;;;;;;;;;;;;;;;10450460;28;19924;-74
2023/03/05 19:00:34;;;;;;;;;;;;;;;;;;10442853;28;19913;-74
2023/03/05 19:05:55;;;;;;;;;;;;;;;;;;10468479;28;19912;-74
2023/03/05 19:11:15;;;;;;;;;;;;;;;;;;10455427;28;19913;-74
2023/03/05 19:16:42;;;;;;;;;;;;;;;;;;10457423;28;19932;-74
2023/03/05 19:22:03;;;;;;;;;;;;;;;;;;10457159;28;19913;-74
2023/03/05 19:27:23;;;;;;;;;;;;;;;;;;10456488;28;19909;-73
2023/03/05 19:32:46;;;;;;;;;;;;;;;;;;10459021;28;19912;-73
2023/03/05 19:38:06;;;;;;;;;;;;;;;;;;10459209;28;19916;-74
2023/03/05 19:43:27;;;;;;;;;;;;;;;;;;10438291;28;19925;-74
2023/03/05 19:48:48;;;;;;;;;;;;;;;;;;10454783;28;19920;-74
2023/03/05 19:54:08;;;;;;;;;;;;;;;;;;10432525;28;19917;-73
2023/03/05 19:59:29;;;;;;;;;;;;;;;;;;10466436;28;20291;-74
2023/03/05 20:04:50;;;;;;;;;;;;;;;;;;10459804;28;19913;-73
2023/03/05 20:10:11;;;;;;;;;;;;;;;;;;10455789;28;19915;-73
2023/03/05 20:15:32;;;;;;;;;;;;;;;;;;10446883;28;19928;-74
2023/03/05 20:20:53;;;;;;;;;;;;;;;;;;10455618;28;19913;-73
2023/03/05 20:26:13;;;;;;;;;;;;;;;;;;10454334;28;20356;-73
2023/03/05 20:31:35;;;;;;;;;;;;;;;;;;10453629;28;19916;-73
2023/03/05 20:36:57;;;;;;;;;;;;;;;;;;10429362;28;19912;-74
2023/03/05 20:42:17;;;;;;;;;;;;;;;;;;10454337;28;19924;-73
2023/03/05 20:47:44;;;;;;;;;;;;;;;;;;10451653;28;19913;-73
2023/03/05 20:53:05;;;;;;;;;;;;;;;;;;10444860;28;20024;-73
2023/03/05 20:58:26;;;;;;;;;;;;;;;;;;10447382;28;19943;-71
2023/03/05 21:03:46;;;;;;;;;;;;;;;;;;10432718;28;20011;-72
2023/03/05 21:09:07;;;;;;;;;;;;;;;;;;10421930;28;20792;-72
2023/03/05 21:14:28;;;;;;;;;;;;;;;;;;10438657;28;19932;-72
2023/03/05 21:19:49;;;;;;;;;;;;;;;;;;10426048;28;20003;-73
2023/03/05 21:25:22;;;;;;;;;;;;;;;;;;10422492;28;19921;-72
2023/03/05 21:30:42;;;;;;;;;;;;;;;;;;10414404;28;19924;-71
2023/03/05 21:36:03;;;;;;;;;;;;;;;;;;10427207;28;19927;-72
2023/03/05 21:41:26;;;;;;;;;;;;;;;;;;10454727;28;20283;-72
2023/03/05 21:46:47;;;;;;;;;;;;;;;;;;10451188;28;19924;-72
2023/03/05 21:52:08;;;;;;;;;;;;;;;;;;10443515;28;19975;-72
2023/03/05 21:57:29;;;;;;;;;;;;;;;;;;10454148;28;19924;-72
2023/03/05 22:02:49;;;;;;;;;;;;;;;;;;10437391;28;19935;-72
2023/03/05 22:08:10;;;;;;;;;;;;;;;;;;10446439;28;19920;-72
2023/03/05 22:13:31;;;;;;;;;;;;;;;;;;10446166;28;19925;-72
2023/03/05 22:18:52;;;;;;;;;;;;;;;;;;10455104;28;20379;-72
2023/03/05 22:24:12;;;;;;;;;;;;;;;;;;10445096;28;20379;-72
2023/03/05 22:29:33;;;;;;;;;;;;;;;;;;10443811;28;20430;-72
2023/03/05 22:34:54;;;;;;;;;;;;;;;;;;10443760;28;19916;-72
2023/03/05 22:40:15;;;;;;;;;;;;;;;;;;10450343;28;19923;-72
2023/03/05 22:45:35;;;;;;;;;;;;;;;;;;10455985;28;19913;-72
2023/03/05 22:50:56;;;;;;;;;;;;;;;;;;10453188;28;20304;-72
2023/03/05 22:56:17;;;;;;;;;;;;;;;;;;10444887;28;19960;-72
2023/03/05 23:01:38;;;;;;;;;;;;;;;;;;10444099;28;19917;-72
2023/03/05 23:06:58;;;;;;;;;;;;;;;;;;10449183;28;20375;-72
2023/03/05 23:12:19;;;;;;;;;;;;;;;;;;10451729;28;19917;-72
2023/03/05 23:17:40;;;;;;;;;;;;;;;;;;10448684;28;19916;-72
2023/03/05 23:23:00;;;;;;;;;;;;;;;;;;10453428;28;19917;-72
2023/03/05 23:28:21;;;;;;;;;;;;;;;;;;10441599;28;19916;-72
2023/03/05 23:33:42;;;;;;;;;;;;;;;;;;10442934;28;20287;-72
2023/03/05 23:39:02;;;;;;;;;;;;;;;;;;10464828;28;19939;-72
2023/03/05 23:44:23;;;;;;;;;;;;;;;;;;10456916;28;20322;-72
2023/03/05 23:49:44;;;;;;;;;;;;;;;;;;10448970;28;19932;-71
2023/03/05 23:55:05;;;;;;;;;;;;;;;;;;10456577;28;19932;-71
